createdAt,value
2023-02-23T00:00:44.692Z,37.26
2023-02-23T00:01:46.488Z,37.33
2023-02-23T00:02:48.375Z,37.36
2023-02-23T00:03:50.223Z,37.36
2023-02-23T00:04:52.062Z,37.33
2023-02-23T00:05:53.901Z,37.27
2023-02-23T00:06:55.758Z,37.29
2023-02-23T00:07:57.531Z,37.17
2023-02-23T00:08:59.310Z,37.03
2023-02-23T00:10:01.160Z,36.74
2023-02-23T00:11:02.990Z,36.70
2023-02-23T00:12:04.810Z,36.70
2023-02-23T00:13:06.712Z,36.71
2023-02-23T00:14:08.520Z,36.59
2023-02-23T00:15:10.369Z,36.46
2023-02-23T00:16:12.715Z,36.49
2023-02-23T00:17:15.256Z,36.42
2023-02-23T00:18:17.200Z,36.22
2023-02-23T00:19:19.013Z,36.17
2023-02-23T00:20:20.944Z,36.24
2023-02-23T00:21:22.740Z,36.40
2023-02-23T00:22:24.542Z,36.46
2023-02-23T00:23:26.340Z,36.39
2023-02-23T00:24:28.143Z,36.34
2023-02-23T00:25:30.022Z,36.35
2023-02-23T00:26:31.917Z,36.32
2023-02-23T00:27:33.720Z,36.33
2023-02-23T00:28:35.521Z,36.41
2023-02-23T00:29:37.342Z,36.28
2023-02-23T00:30:39.208Z,36.24
2023-02-23T00:31:41.038Z,35.94
2023-02-23T00:32:42.965Z,35.70
2023-02-23T00:33:44.927Z,35.77
2023-02-23T00:34:46.727Z,35.93
2023-02-23T00:35:48.574Z,35.94
2023-02-23T00:36:50.492Z,35.97
2023-02-23T00:37:52.288Z,36.00
2023-02-23T00:38:54.087Z,35.98
2023-02-23T00:39:55.891Z,36.00
2023-02-23T00:40:57.847Z,36.06
2023-02-23T00:41:59.649Z,35.91
2023-02-23T00:43:01.443Z,35.79
2023-02-23T00:44:03.251Z,35.63
2023-02-23T00:45:05.066Z,35.52
2023-02-23T00:46:07.204Z,35.40
2023-02-23T00:47:08.965Z,35.28
2023-02-23T00:48:10.829Z,35.23
2023-02-23T00:49:12.693Z,35.14
2023-02-23T00:50:16.009Z,35.08
2023-02-23T00:51:18.163Z,35.08
2023-02-23T00:52:20.164Z,34.97
2023-02-23T00:53:21.981Z,34.99
2023-02-23T00:54:23.759Z,34.92
2023-02-23T00:55:25.562Z,34.91
2023-02-23T00:56:27.514Z,34.89
2023-02-23T00:57:29.323Z,34.90
2023-02-23T00:58:31.116Z,34.85
2023-02-23T00:59:32.920Z,34.67
2023-02-23T01:00:34.718Z,34.61
2023-02-23T01:01:36.606Z,34.66
2023-02-23T01:02:38.421Z,34.77
2023-02-23T01:03:40.285Z,34.95
2023-02-23T01:04:42.093Z,34.99
2023-02-23T01:05:43.905Z,35.01
2023-02-23T01:06:45.849Z,35.00
2023-02-23T01:07:47.646Z,34.94
2023-02-23T01:08:49.445Z,34.88
2023-02-23T01:09:51.234Z,34.82
2023-02-23T01:10:53.243Z,34.80
2023-02-23T01:11:55.081Z,34.76
2023-02-23T01:12:56.894Z,34.74
2023-02-23T01:13:58.686Z,34.66
2023-02-23T01:15:00.494Z,34.63
2023-02-23T01:16:02.389Z,34.63
2023-02-23T01:17:04.355Z,34.64
2023-02-23T01:18:06.155Z,34.58
2023-02-23T01:19:07.982Z,34.54
2023-02-23T01:20:10.087Z,34.52
2023-02-23T01:21:11.884Z,34.50
2023-02-23T01:22:13.747Z,34.47
2023-02-23T01:23:15.552Z,34.44
2023-02-23T01:24:17.348Z,34.47
2023-02-23T01:25:19.146Z,34.44
2023-02-23T01:26:21.059Z,34.39
2023-02-23T01:27:22.925Z,34.40
2023-02-23T01:28:24.723Z,34.46
2023-02-23T01:29:26.535Z,34.46
2023-02-23T01:30:28.353Z,34.53
2023-02-23T01:31:30.223Z,34.61
2023-02-23T01:32:32.108Z,34.62
2023-02-23T01:33:33.900Z,34.56
2023-02-23T01:34:35.693Z,34.60
2023-02-23T01:35:37.501Z,34.61
2023-02-23T01:36:39.304Z,34.64
2023-02-23T01:37:41.144Z,34.63
2023-02-23T01:38:43.046Z,34.57
2023-02-23T01:39:44.858Z,34.50
2023-02-23T01:40:46.869Z,34.47
2023-02-23T01:41:48.666Z,34.46
2023-02-23T01:42:50.511Z,34.42
2023-02-23T01:43:52.323Z,34.37
2023-02-23T01:44:54.154Z,34.36
2023-02-23T01:45:55.991Z,34.32
2023-02-23T01:46:58.162Z,34.30
2023-02-23T01:48:00.020Z,34.27
2023-02-23T01:49:01.816Z,34.26
2023-02-23T01:50:03.606Z,34.23
2023-02-23T01:51:05.408Z,34.24
2023-02-23T01:52:07.204Z,34.25
2023-02-23T01:53:09.053Z,34.27
2023-02-23T01:54:10.860Z,34.26
2023-02-23T01:55:12.649Z,34.26
2023-02-23T01:56:14.965Z,34.25
2023-02-23T01:57:16.759Z,34.23
2023-02-23T01:58:18.610Z,34.19
2023-02-23T01:59:20.419Z,34.21
2023-02-23T02:00:22.318Z,34.20
2023-02-23T02:01:24.844Z,34.21
2023-02-23T02:02:26.612Z,34.21
2023-02-23T02:03:28.447Z,34.24
2023-02-23T02:04:30.251Z,34.29
2023-02-23T02:05:32.061Z,34.30
2023-02-23T02:06:33.860Z,34.33
2023-02-23T02:07:35.656Z,34.31
2023-02-23T02:08:37.503Z,34.32
2023-02-23T02:09:39.301Z,34.37
2023-02-23T02:10:41.103Z,34.33
2023-02-23T02:11:42.909Z,34.33
2023-02-23T02:12:44.723Z,34.35
2023-02-23T02:13:46.574Z,34.29
2023-02-23T02:14:48.371Z,34.28
2023-02-23T02:15:50.220Z,34.28
2023-02-23T02:16:51.997Z,34.29
2023-02-23T02:17:53.797Z,34.35
2023-02-23T02:18:55.646Z,34.36
2023-02-23T02:19:57.456Z,34.39
2023-02-23T02:20:59.373Z,34.42
2023-02-23T02:22:01.184Z,34.42
2023-02-23T02:23:03.019Z,34.39
2023-02-23T02:24:04.847Z,34.35
2023-02-23T02:25:06.733Z,34.34
2023-02-23T02:26:08.777Z,34.37
2023-02-23T02:27:10.592Z,34.39
2023-02-23T02:28:12.377Z,34.46
2023-02-23T02:29:14.239Z,34.48
2023-02-23T02:30:16.133Z,34.51
2023-02-23T02:31:18.229Z,34.54
2023-02-23T02:32:20.292Z,34.56
2023-02-23T02:33:22.089Z,34.58
2023-02-23T02:34:23.932Z,34.64
2023-02-23T02:35:25.751Z,34.65
2023-02-23T02:36:27.645Z,34.66
2023-02-23T02:37:29.441Z,34.65
2023-02-23T02:38:31.257Z,34.68
2023-02-23T02:39:33.113Z,34.73
2023-02-23T02:40:34.914Z,34.69
2023-02-23T02:41:36.714Z,34.74
2023-02-23T02:42:38.512Z,34.76
2023-02-23T02:43:40.322Z,34.76
2023-02-23T02:44:42.182Z,34.77
2023-02-23T02:45:43.983Z,34.85
2023-02-23T02:46:45.783Z,34.91
2023-02-23T02:47:47.591Z,34.94
2023-02-23T02:48:49.404Z,34.94
2023-02-23T02:49:51.256Z,34.91
2023-02-23T02:50:53.292Z,34.91
2023-02-23T02:51:55.092Z,34.92
2023-02-23T02:52:56.899Z,34.93
2023-02-23T02:53:58.710Z,34.89
2023-02-23T02:55:00.545Z,34.84
2023-02-23T02:56:02.373Z,34.83
2023-02-23T02:57:04.149Z,34.83
2023-02-23T02:58:05.956Z,34.81
2023-02-23T02:59:07.781Z,34.85
2023-02-23T03:00:09.826Z,34.93
2023-02-23T03:01:11.706Z,34.94
2023-02-23T03:02:13.482Z,34.96
2023-02-23T03:03:15.292Z,35.03
2023-02-23T03:04:17.095Z,35.08
2023-02-23T03:05:18.970Z,35.05
2023-02-23T03:06:21.454Z,35.02
2023-02-23T03:07:23.269Z,35.07
2023-02-23T03:08:25.090Z,35.10
2023-02-23T03:09:26.885Z,35.12
2023-02-23T03:10:28.736Z,35.11
2023-02-23T03:11:30.533Z,35.12
2023-02-23T03:12:32.401Z,35.14
2023-02-23T03:13:34.208Z,35.27
2023-02-23T03:14:36.014Z,35.30
2023-02-23T03:15:37.865Z,35.30
2023-02-23T03:16:39.863Z,35.38
2023-02-23T03:17:41.645Z,35.41
2023-02-23T03:18:43.446Z,35.45
2023-02-23T03:19:45.238Z,35.48
2023-02-23T03:20:47.100Z,35.49
2023-02-23T03:21:48.906Z,35.53
2023-02-23T03:22:50.692Z,35.57
2023-02-23T03:23:52.498Z,35.54
2023-02-23T03:24:54.301Z,35.53
2023-02-23T03:25:56.148Z,35.48
2023-02-23T03:26:57.948Z,35.47
2023-02-23T03:27:59.745Z,35.45
2023-02-23T03:29:01.548Z,35.48
2023-02-23T03:30:03.345Z,35.46
2023-02-23T03:31:05.191Z,35.46
2023-02-23T03:32:07.218Z,35.46
2023-02-23T03:33:09.110Z,35.45
2023-02-23T03:34:10.917Z,35.43
2023-02-23T03:35:12.709Z,35.54
2023-02-23T03:36:15.283Z,35.57
2023-02-23T03:37:17.052Z,35.59
2023-02-23T03:38:18.868Z,35.57
2023-02-23T03:39:20.658Z,35.58
2023-02-23T03:40:22.862Z,35.52
2023-02-23T03:41:24.700Z,35.59
2023-02-23T03:42:26.518Z,35.69
2023-02-23T03:43:28.315Z,35.74
2023-02-23T03:44:30.122Z,35.77
2023-02-23T03:45:31.946Z,35.78
2023-02-23T03:46:33.751Z,35.79
2023-02-23T03:47:35.560Z,35.77
2023-02-23T03:48:37.369Z,35.71
2023-02-23T03:49:39.155Z,35.75
2023-02-23T03:50:40.943Z,35.74
2023-02-23T03:51:42.807Z,35.75
2023-02-23T03:52:44.632Z,35.76
2023-02-23T03:53:46.401Z,35.74
2023-02-23T03:54:48.240Z,35.73
2023-02-23T03:55:50.029Z,35.75
2023-02-23T03:56:51.850Z,35.72
2023-02-23T03:57:53.643Z,35.87
2023-02-23T03:58:55.451Z,35.91
2023-02-23T03:59:57.271Z,36.10
2023-02-23T04:00:59.169Z,36.18
2023-02-23T04:02:01.029Z,36.26
2023-02-23T04:03:02.809Z,36.31
2023-02-23T04:04:04.611Z,36.33
2023-02-23T04:05:06.423Z,36.39
2023-02-23T04:06:08.733Z,36.51
2023-02-23T04:07:10.574Z,36.64
2023-02-23T04:08:12.390Z,36.73
2023-02-23T04:09:14.203Z,36.71
2023-02-23T04:10:16.211Z,36.73
2023-02-23T04:11:18.305Z,36.89
2023-02-23T04:12:20.368Z,37.00
2023-02-23T04:13:22.186Z,36.97
2023-02-23T04:14:23.988Z,37.07
2023-02-23T04:15:25.795Z,37.09
2023-02-23T04:16:27.634Z,37.08
2023-02-23T04:17:29.556Z,37.05
2023-02-23T04:18:31.372Z,36.92
2023-02-23T04:19:33.162Z,36.85
2023-02-23T04:20:34.994Z,36.93
2023-02-23T04:21:36.769Z,36.87
2023-02-23T04:22:38.626Z,36.78
2023-02-23T04:23:40.429Z,36.58
2023-02-23T04:24:42.223Z,36.52
2023-02-23T04:25:44.019Z,36.62
2023-02-23T04:26:46.023Z,36.63
2023-02-23T04:27:47.901Z,36.58
2023-02-23T04:28:49.699Z,36.43
2023-02-23T04:29:51.501Z,36.42
2023-02-23T04:30:53.429Z,36.46
2023-02-23T04:31:55.375Z,36.50
2023-02-23T04:32:57.269Z,36.44
2023-02-23T04:33:59.079Z,36.26
2023-02-23T04:35:00.867Z,36.23
2023-02-23T04:36:02.669Z,36.12
2023-02-23T04:37:04.476Z,36.28
2023-02-23T04:38:06.323Z,36.38
2023-02-23T04:39:08.135Z,36.52
2023-02-23T04:40:10.139Z,36.52
2023-02-23T04:41:11.926Z,36.58
2023-02-23T04:42:13.754Z,36.54
2023-02-23T04:43:15.610Z,36.67
2023-02-23T04:44:17.408Z,36.59
2023-02-23T04:45:19.266Z,36.62
2023-02-23T04:46:21.180Z,36.57
2023-02-23T04:47:23.010Z,36.44
2023-02-23T04:48:24.844Z,36.44
2023-02-23T04:49:26.644Z,36.36
2023-02-23T04:50:28.463Z,36.23
2023-02-23T04:51:30.269Z,36.38
2023-02-23T04:52:32.073Z,36.35
2023-02-23T04:53:33.918Z,36.26
2023-02-23T04:54:35.718Z,36.34
2023-02-23T04:55:37.512Z,36.28
2023-02-23T04:56:39.424Z,36.33
2023-02-23T04:57:41.213Z,36.22
2023-02-23T04:58:43.089Z,36.24
2023-02-23T04:59:44.897Z,36.35
2023-02-23T05:00:46.894Z,36.52
2023-02-23T05:01:48.689Z,36.58
2023-02-23T05:02:50.888Z,36.49
2023-02-23T05:03:52.857Z,36.43
2023-02-23T05:04:54.678Z,36.49
2023-02-23T05:05:56.460Z,36.57
2023-02-23T05:06:58.268Z,36.68
2023-02-23T05:08:00.096Z,36.71
2023-02-23T05:09:01.916Z,36.58
2023-02-23T05:10:03.740Z,36.61
2023-02-23T05:11:05.545Z,36.76
2023-02-23T05:12:07.550Z,36.75
2023-02-23T05:13:09.347Z,36.82
2023-02-23T05:14:11.149Z,36.80
2023-02-23T05:15:12.952Z,36.73
2023-02-23T05:16:15.384Z,36.59
2023-02-23T05:17:17.161Z,36.50
2023-02-23T05:18:18.976Z,36.54
2023-02-23T05:19:22.960Z,36.56
2023-02-23T05:20:25.856Z,36.44
2023-02-23T05:21:27.668Z,36.48
2023-02-23T05:22:29.471Z,36.52
2023-02-23T05:23:31.312Z,36.54
2023-02-23T05:24:34.614Z,36.60
2023-02-23T05:25:37.313Z,36.67
2023-02-23T05:26:39.132Z,36.70
2023-02-23T05:27:40.937Z,36.72
2023-02-23T05:28:42.754Z,36.68
2023-02-23T05:29:44.598Z,36.53
2023-02-23T05:30:47.611Z,36.56
2023-02-23T05:31:49.527Z,36.59
2023-02-23T05:32:51.426Z,36.60
2023-02-23T05:33:53.240Z,36.53
2023-02-23T05:34:55.090Z,36.41
2023-02-23T05:35:56.887Z,36.59
2023-02-23T05:36:58.681Z,36.73
2023-02-23T05:38:00.493Z,36.81
2023-02-23T05:39:02.298Z,36.81
2023-02-23T05:40:04.246Z,36.96
2023-02-23T05:41:06.052Z,37.08
2023-02-23T05:42:07.871Z,37.20
2023-02-23T05:43:09.883Z,37.34
2023-02-23T05:44:11.680Z,37.43
2023-02-23T05:45:13.539Z,37.34
2023-02-23T05:46:15.584Z,37.24
2023-02-23T05:47:17.342Z,37.18
2023-02-23T05:48:19.145Z,37.06
2023-02-23T05:49:20.944Z,37.12
2023-02-23T05:50:22.804Z,37.13
2023-02-23T05:51:24.615Z,37.25
2023-02-23T05:52:26.426Z,37.37
2023-02-23T05:53:28.213Z,37.19
2023-02-23T05:54:30.132Z,37.11
2023-02-23T05:55:31.998Z,37.09
2023-02-23T05:56:33.799Z,37.03
2023-02-23T05:57:35.608Z,36.98
2023-02-23T05:58:37.408Z,37.06
2023-02-23T05:59:39.223Z,37.33
2023-02-23T06:00:41.076Z,37.54
2023-02-23T06:01:42.872Z,37.58
2023-02-23T06:02:44.727Z,37.58
2023-02-23T06:03:46.637Z,37.41
2023-02-23T06:04:48.404Z,37.31
2023-02-23T06:05:50.282Z,37.16
2023-02-23T06:06:52.120Z,37.07
2023-02-23T06:07:53.928Z,37.11
2023-02-23T06:08:55.733Z,37.11
2023-02-23T06:09:57.522Z,36.81
2023-02-23T06:10:59.481Z,36.92
2023-02-23T06:12:01.292Z,36.79
2023-02-23T06:13:03.102Z,36.59
2023-02-23T06:14:04.898Z,36.48
2023-02-23T06:15:06.704Z,36.63
2023-02-23T06:16:09.189Z,36.45
2023-02-23T06:17:11.065Z,36.55
2023-02-23T06:18:12.876Z,36.62
2023-02-23T06:19:14.700Z,36.51
2023-02-23T06:20:16.694Z,36.47
2023-02-23T06:21:18.881Z,36.39
2023-02-23T06:22:20.882Z,36.34
2023-02-23T06:23:22.687Z,35.99
2023-02-23T06:24:24.493Z,35.75
2023-02-23T06:25:26.303Z,35.74
2023-02-23T06:26:28.444Z,35.58
2023-02-23T06:27:30.277Z,35.52
2023-02-23T06:28:32.095Z,35.35
2023-02-23T06:29:33.890Z,35.25
2023-02-23T06:30:35.754Z,35.20
2023-02-23T06:31:37.617Z,34.90
2023-02-23T06:32:39.639Z,34.88
2023-02-23T06:33:41.478Z,34.74
2023-02-23T06:34:43.292Z,34.92
2023-02-23T06:35:46.447Z,34.73
2023-02-23T06:36:48.505Z,34.58
2023-02-23T06:37:50.325Z,34.67
2023-02-23T06:38:52.145Z,34.83
2023-02-23T06:39:53.938Z,34.76
2023-02-23T06:40:55.958Z,34.76
2023-02-23T06:41:57.838Z,34.73
2023-02-23T06:42:59.654Z,34.84
2023-02-23T06:44:01.453Z,34.94
2023-02-23T06:45:03.346Z,34.84
2023-02-23T06:46:05.354Z,34.90
2023-02-23T06:47:07.219Z,34.87
2023-02-23T06:48:09.014Z,34.64
2023-02-23T06:49:10.815Z,34.71
2023-02-23T06:50:13.426Z,34.76
2023-02-23T06:51:15.242Z,34.71
2023-02-23T06:52:17.121Z,34.60
2023-02-23T06:53:18.902Z,33.93
2023-02-23T06:54:20.721Z,33.93
2023-02-23T06:55:22.544Z,33.82
2023-02-23T06:56:24.551Z,33.89
2023-02-23T06:57:26.400Z,33.97
2023-02-23T06:58:28.198Z,34.00
2023-02-23T06:59:30.009Z,33.69
2023-02-23T07:00:31.915Z,33.84
2023-02-23T07:01:33.750Z,33.82
2023-02-23T07:02:35.604Z,33.82
2023-02-23T07:03:37.447Z,33.58
2023-02-23T07:04:39.225Z,33.66
2023-02-23T07:05:41.067Z,33.38
2023-02-23T07:06:42.831Z,33.15
2023-02-23T07:07:44.695Z,33.27
2023-02-23T07:08:46.492Z,33.38
2023-02-23T07:09:48.314Z,33.12
2023-02-23T07:10:50.213Z,32.91
2023-02-23T07:11:52.036Z,32.96
2023-02-23T07:12:54.341Z,32.92
2023-02-23T07:13:56.194Z,33.02
2023-02-23T07:14:58.030Z,32.97
2023-02-23T07:15:59.889Z,32.70
2023-02-23T07:17:01.775Z,32.75
2023-02-23T07:18:03.602Z,32.60
2023-02-23T07:19:05.409Z,32.36
2023-02-23T07:20:08.661Z,32.35
2023-02-23T07:21:10.453Z,32.22
2023-02-23T07:22:12.528Z,32.18
2023-02-23T07:23:14.448Z,32.29
2023-02-23T07:24:16.315Z,32.44
2023-02-23T07:25:18.227Z,31.90
2023-02-23T07:26:20.959Z,31.76
2023-02-23T07:27:22.813Z,31.71
2023-02-23T07:28:24.655Z,31.73
2023-02-23T07:29:26.484Z,31.60
2023-02-23T07:30:28.325Z,31.33
2023-02-23T07:31:30.143Z,31.32
2023-02-23T07:32:32.093Z,31.24
2023-02-23T07:33:33.973Z,31.33
2023-02-23T07:34:35.782Z,31.38
2023-02-23T07:35:37.594Z,31.43
2023-02-23T07:36:39.692Z,31.53
2023-02-23T07:37:41.538Z,31.35
2023-02-23T07:38:43.366Z,31.33
2023-02-23T07:39:45.441Z,31.39
2023-02-23T07:40:47.334Z,31.37
2023-02-23T07:41:49.148Z,31.29
2023-02-23T07:42:50.993Z,31.53
2023-02-23T07:43:52.844Z,31.60
2023-02-23T07:44:54.656Z,31.67
2023-02-23T07:45:56.775Z,31.71
2023-02-23T07:46:58.770Z,31.71
2023-02-23T07:48:00.636Z,31.50
2023-02-23T07:49:02.539Z,31.37
2023-02-23T07:50:04.453Z,31.23
2023-02-23T07:51:06.743Z,31.47
2023-02-23T07:52:09.305Z,31.53
2023-02-23T07:53:11.094Z,31.55
2023-02-23T07:54:12.961Z,31.51
2023-02-23T07:55:14.757Z,31.65
2023-02-23T07:56:17.088Z,31.59
2023-02-23T07:57:20.036Z,31.66
2023-02-23T07:58:22.523Z,31.69
2023-02-23T07:59:24.403Z,31.60
2023-02-23T08:00:26.202Z,31.56
2023-02-23T08:01:28.064Z,31.44
2023-02-23T08:02:29.925Z,31.53
2023-02-23T08:03:31.726Z,31.58
2023-02-23T08:04:33.679Z,31.27
2023-02-23T08:05:35.471Z,31.27
2023-02-23T08:06:37.258Z,31.60
2023-02-23T08:07:39.090Z,31.57
2023-02-23T08:08:40.921Z,31.69
2023-02-23T08:09:42.779Z,31.90
2023-02-23T08:10:44.577Z,31.98
2023-02-23T08:11:46.393Z,31.63
2023-02-23T08:12:48.254Z,31.41
2023-02-23T08:13:50.116Z,31.66
2023-02-23T08:14:51.986Z,31.82
2023-02-23T08:15:53.792Z,31.88
2023-02-23T08:16:55.744Z,31.37
2023-02-23T08:17:57.514Z,31.33
2023-02-23T08:18:59.388Z,31.30
2023-02-23T08:20:01.281Z,31.37
2023-02-23T08:21:03.097Z,31.57
2023-02-23T08:22:07.703Z,31.64
2023-02-23T08:23:09.609Z,31.48
2023-02-23T08:24:11.486Z,31.77
2023-02-23T08:25:13.353Z,31.84
2023-02-23T08:26:15.774Z,31.74
2023-02-23T08:27:17.577Z,31.84
2023-02-23T08:28:19.396Z,31.74
2023-02-23T08:29:21.194Z,31.72
2023-02-23T08:30:23.464Z,31.71
2023-02-23T08:31:25.639Z,31.70
2023-02-23T08:32:27.676Z,31.72
2023-02-23T08:33:29.567Z,31.82
2023-02-23T08:34:31.402Z,31.84
2023-02-23T08:35:33.261Z,31.63
2023-02-23T08:36:35.064Z,31.67
2023-02-23T08:37:36.991Z,31.89
2023-02-23T08:38:38.796Z,32.03
2023-02-23T08:39:42.336Z,31.95
2023-02-23T08:40:44.490Z,31.94
2023-02-23T08:41:46.320Z,31.91
2023-02-23T08:42:48.130Z,31.87
2023-02-23T08:43:49.935Z,31.62
2023-02-23T08:44:51.727Z,31.83
2023-02-23T08:45:53.613Z,31.78
2023-02-23T08:46:55.602Z,31.77
2023-02-23T08:47:57.407Z,31.76
2023-02-23T08:48:59.204Z,31.92
2023-02-23T08:50:01.028Z,32.05
2023-02-23T08:51:02.889Z,31.91
2023-02-23T08:52:04.692Z,31.71
2023-02-23T08:53:06.485Z,31.60
2023-02-23T08:54:08.394Z,31.63
2023-02-23T08:55:10.207Z,31.80
2023-02-23T08:56:12.356Z,32.00
2023-02-23T08:57:14.176Z,32.05
2023-02-23T08:58:15.971Z,32.23
2023-02-23T08:59:17.782Z,32.02
2023-02-23T09:00:19.879Z,31.87
2023-02-23T09:01:22.172Z,31.93
2023-02-23T09:02:24.156Z,31.91
2023-02-23T09:03:25.961Z,31.92
2023-02-23T09:04:27.752Z,31.97
2023-02-23T09:05:29.569Z,32.03
2023-02-23T09:06:31.609Z,32.00
2023-02-23T09:07:33.406Z,31.96
2023-02-23T09:08:35.207Z,31.71
2023-02-23T09:09:37.020Z,31.74
2023-02-23T09:10:38.831Z,31.74
2023-02-23T09:11:40.693Z,31.76
2023-02-23T09:12:42.482Z,31.56
2023-02-23T09:13:44.285Z,31.79
2023-02-23T09:14:46.088Z,32.05
2023-02-23T09:15:47.957Z,32.28
2023-02-23T09:16:50.066Z,32.18
2023-02-23T09:17:51.892Z,32.06
2023-02-23T09:18:53.712Z,32.07
2023-02-23T09:19:55.536Z,32.10
2023-02-23T09:20:57.336Z,31.95
2023-02-23T09:21:59.197Z,31.82
2023-02-23T09:23:00.994Z,31.80
2023-02-23T09:24:02.796Z,31.71
2023-02-23T09:25:04.612Z,31.86
2023-02-23T09:26:06.517Z,31.99
2023-02-23T09:27:08.367Z,32.12
2023-02-23T09:28:10.183Z,32.20
2023-02-23T09:29:12.000Z,31.88
2023-02-23T09:30:13.990Z,31.85
2023-02-23T09:31:15.944Z,31.75
2023-02-23T09:32:18.055Z,31.61
2023-02-23T09:33:19.941Z,31.71
2023-02-23T09:34:21.800Z,31.92
2023-02-23T09:35:23.643Z,32.05
2023-02-23T09:36:25.468Z,32.05
2023-02-23T09:37:27.324Z,31.93
2023-02-23T09:38:29.146Z,31.99
2023-02-23T09:39:38.056Z,32.03
2023-02-23T09:40:34.682Z,31.82
2023-02-23T09:41:36.485Z,31.64
2023-02-23T09:42:38.344Z,31.72
2023-02-23T09:43:40.229Z,31.93
2023-02-23T09:44:42.067Z,32.01
2023-02-23T09:45:43.962Z,31.99
2023-02-23T09:46:45.992Z,31.92
2023-02-23T09:47:47.839Z,31.77
2023-02-23T09:48:49.648Z,31.65
2023-02-23T09:49:51.442Z,31.50
2023-02-23T09:50:53.366Z,31.33
2023-02-23T09:51:55.150Z,31.37
2023-02-23T09:52:57.366Z,31.40
2023-02-23T09:53:59.644Z,31.49
2023-02-23T09:55:01.428Z,31.55
2023-02-23T09:56:03.245Z,31.69
2023-02-23T09:57:05.070Z,31.73
2023-02-23T09:58:06.897Z,31.74
2023-02-23T09:59:10.094Z,31.79
2023-02-23T10:00:14.379Z,31.78
2023-02-23T10:01:16.315Z,31.88
2023-02-23T10:02:18.242Z,31.93
2023-02-23T10:03:20.104Z,31.93
2023-02-23T10:04:21.924Z,31.88
2023-02-23T10:05:23.748Z,31.67
2023-02-23T10:06:25.752Z,31.74
2023-02-23T10:07:27.563Z,31.70
2023-02-23T10:08:29.410Z,31.65
2023-02-23T10:09:31.230Z,31.51
2023-02-23T10:10:33.096Z,31.59
2023-02-23T10:11:37.548Z,31.59
2023-02-23T10:12:38.457Z,31.72
2023-02-23T10:13:40.337Z,31.75
2023-02-23T10:14:42.154Z,31.78
2023-02-23T10:15:43.982Z,31.58
2023-02-23T10:16:45.853Z,31.41
2023-02-23T10:17:47.674Z,31.30
2023-02-23T10:18:49.635Z,31.54
2023-02-23T10:19:51.458Z,31.60
2023-02-23T10:20:53.261Z,31.49
2023-02-23T10:21:55.265Z,31.48
2023-02-23T10:22:57.076Z,31.41
2023-02-23T10:23:58.912Z,31.46
2023-02-23T10:25:00.719Z,31.47
2023-02-23T10:26:02.524Z,31.52
2023-02-23T10:27:04.337Z,31.40
2023-02-23T10:28:06.127Z,31.48
2023-02-23T10:29:07.962Z,31.62
2023-02-23T10:30:09.992Z,31.69
2023-02-23T10:31:11.905Z,31.48
2023-02-23T10:32:13.868Z,31.31
2023-02-23T10:33:15.604Z,30.99
2023-02-23T10:34:17.483Z,30.99
2023-02-23T10:35:19.303Z,31.05
2023-02-23T10:36:22.220Z,30.99
2023-02-23T10:37:24.087Z,31.13
2023-02-23T10:38:25.819Z,31.25
2023-02-23T10:39:27.743Z,31.12
2023-02-23T10:40:29.672Z,31.25
2023-02-23T10:41:31.480Z,31.23
2023-02-23T10:42:33.299Z,31.15
2023-02-23T10:43:35.087Z,31.11
2023-02-23T10:44:36.933Z,31.07
2023-02-23T10:45:38.743Z,31.00
2023-02-23T10:46:40.713Z,30.75
2023-02-23T10:47:42.458Z,30.77
2023-02-23T10:48:44.278Z,30.80
2023-02-23T10:49:46.121Z,30.73
2023-02-23T10:50:48.861Z,30.61
2023-02-23T10:51:50.684Z,30.65
2023-02-23T10:52:52.509Z,30.51
2023-02-23T10:53:54.312Z,30.59
2023-02-23T10:54:56.158Z,30.81
2023-02-23T10:55:57.968Z,30.74
2023-02-23T10:56:59.996Z,30.78
2023-02-23T10:58:01.825Z,30.63
2023-02-23T10:59:03.838Z,30.66
2023-02-23T11:00:05.900Z,30.73
2023-02-23T11:01:07.724Z,30.47
2023-02-23T11:02:09.789Z,30.49
2023-02-23T11:03:11.595Z,30.74
2023-02-23T11:04:13.542Z,31.01
2023-02-23T11:05:15.447Z,31.26
2023-02-23T11:06:17.661Z,31.26
2023-02-23T11:07:19.802Z,31.02
2023-02-23T11:08:21.933Z,30.95
2023-02-23T11:09:33.092Z,30.96
2023-02-23T11:10:27.660Z,30.86
2023-02-23T11:11:29.520Z,30.81
2023-02-23T11:12:31.441Z,30.81
2023-02-23T11:13:33.300Z,30.76
2023-02-23T11:14:35.144Z,30.75
2023-02-23T11:15:49.753Z,30.68
2023-02-23T11:16:40.925Z,30.54
2023-02-23T11:17:42.752Z,30.63
2023-02-23T11:18:44.590Z,30.93
2023-02-23T11:19:47.028Z,30.76
2023-02-23T11:20:49.457Z,30.60
2023-02-23T11:21:51.247Z,30.67
2023-02-23T11:22:53.212Z,30.79
2023-02-23T11:23:55.688Z,30.67
2023-02-23T11:24:57.491Z,30.55
2023-02-23T11:25:59.346Z,30.29
2023-02-23T11:27:01.264Z,30.41
2023-02-23T11:28:03.100Z,30.51
2023-02-23T11:29:04.988Z,30.47
2023-02-23T11:30:07.023Z,30.49
2023-02-23T11:31:08.935Z,30.52
2023-02-23T11:32:10.917Z,30.70
2023-02-23T11:33:12.825Z,30.57
2023-02-23T11:34:14.613Z,30.57
2023-02-23T11:35:16.427Z,30.50
2023-02-23T11:36:18.896Z,30.50
2023-02-23T11:37:20.773Z,30.53
2023-02-23T11:38:22.552Z,30.23
2023-02-23T11:39:24.378Z,30.11
2023-02-23T11:40:26.691Z,30.00
2023-02-23T11:41:28.608Z,30.01
2023-02-23T11:42:30.395Z,29.93
2023-02-23T11:43:32.198Z,30.26
2023-02-23T11:44:33.995Z,30.27
2023-02-23T11:45:35.816Z,30.49
2023-02-23T11:46:37.923Z,30.78
2023-02-23T11:47:39.783Z,30.67
2023-02-23T11:48:41.567Z,30.56
2023-02-23T11:49:43.386Z,30.63
2023-02-23T11:50:45.302Z,30.50
2023-02-23T11:51:47.165Z,30.42
2023-02-23T11:52:48.971Z,30.67
2023-02-23T11:53:50.769Z,30.73
2023-02-23T11:54:52.588Z,30.62
2023-02-23T11:55:54.386Z,30.55
2023-02-23T11:56:56.443Z,30.28
2023-02-23T11:57:58.280Z,29.93
2023-02-23T11:59:00.122Z,29.92
2023-02-23T12:00:01.890Z,29.91
2023-02-23T12:01:03.751Z,29.83
2023-02-23T12:02:05.659Z,29.67
2023-02-23T12:03:07.474Z,29.64
2023-02-23T12:04:09.288Z,29.72
2023-02-23T12:05:11.110Z,29.93
2023-02-23T12:06:13.552Z,29.92
2023-02-23T12:07:15.385Z,29.77
2023-02-23T12:08:17.200Z,29.54
2023-02-23T12:09:19.030Z,29.60
2023-02-23T12:10:21.386Z,29.61
2023-02-23T12:11:23.257Z,29.49
2023-02-23T12:12:25.060Z,29.55
2023-02-23T12:13:26.862Z,29.47
2023-02-23T12:14:28.674Z,29.54
2023-02-23T12:15:30.468Z,29.74
2023-02-23T12:16:32.649Z,29.82
2023-02-23T12:17:34.663Z,29.83
2023-02-23T12:18:36.441Z,29.76
2023-02-23T12:19:38.343Z,29.95
2023-02-23T12:20:40.346Z,29.96
2023-02-23T12:21:42.197Z,29.97
2023-02-23T12:22:44.030Z,30.31
2023-02-23T12:23:48.534Z,30.42
2023-02-23T12:24:49.508Z,30.54
2023-02-23T12:25:51.337Z,30.66
2023-02-23T12:26:53.150Z,30.32
2023-02-23T12:27:55.006Z,30.40
2023-02-23T12:28:56.798Z,30.49
2023-02-23T12:29:58.612Z,30.62
2023-02-23T12:31:00.551Z,30.67
2023-02-23T12:32:02.406Z,30.70
2023-02-23T12:33:04.818Z,30.76
2023-02-23T12:34:06.629Z,30.63
2023-02-23T12:35:08.484Z,30.37
2023-02-23T12:36:10.985Z,30.24
2023-02-23T12:37:12.794Z,30.04
2023-02-23T12:38:14.640Z,30.11
2023-02-23T12:39:16.454Z,30.17
2023-02-23T12:40:18.264Z,29.99
2023-02-23T12:41:20.077Z,30.07
2023-02-23T12:42:21.889Z,29.97
2023-02-23T12:43:23.740Z,29.96
2023-02-23T12:44:25.561Z,29.99
2023-02-23T12:45:27.384Z,29.89
2023-02-23T12:46:29.253Z,29.59
2023-02-23T12:47:31.080Z,29.84
2023-02-23T12:48:32.972Z,30.23
2023-02-23T12:49:34.797Z,30.33
2023-02-23T12:50:36.589Z,30.29
2023-02-23T12:51:38.392Z,30.35
2023-02-23T12:52:40.198Z,30.48
2023-02-23T12:53:42.062Z,30.19
2023-02-23T12:54:43.868Z,30.27
2023-02-23T12:55:45.696Z,30.08
2023-02-23T12:56:47.715Z,30.26
2023-02-23T12:57:49.526Z,30.06
2023-02-23T12:58:51.374Z,29.96
2023-02-23T12:59:53.189Z,29.85
2023-02-23T13:00:55.256Z,29.86
2023-02-23T13:01:57.132Z,29.83
2023-02-23T13:02:58.910Z,29.68
2023-02-23T13:04:00.770Z,29.72
2023-02-23T13:05:02.588Z,29.93
2023-02-23T13:06:04.486Z,30.12
2023-02-23T13:07:06.300Z,30.14
2023-02-23T13:08:13.474Z,30.13
2023-02-23T13:09:11.775Z,30.09
2023-02-23T13:10:15.306Z,29.93
2023-02-23T13:11:17.301Z,30.12
2023-02-23T13:12:19.273Z,30.26
2023-02-23T13:13:21.036Z,30.37
2023-02-23T13:14:22.916Z,30.14
2023-02-23T13:15:24.718Z,30.09
2023-02-23T13:16:26.656Z,30.13
2023-02-23T13:17:28.517Z,30.01